createdAt,value
2024-01-06T00:00:23.415Z,-25.38
2024-01-06T00:02:51.085Z,-25.38
2024-01-06T00:05:18.683Z,-25.60
2024-01-06T00:07:46.387Z,-25.98
2024-01-06T00:10:17.562Z,-25.90
2024-01-06T00:12:46.563Z,-26.15
2024-01-06T00:15:14.183Z,-25.87
2024-01-06T00:17:42.342Z,-25.90
2024-01-06T00:20:10.753Z,-26.08
2024-01-06T00:22:38.578Z,-26.63
2024-01-06T00:28:12.821Z,-25.80
2024-01-06T00:30:40.488Z,-25.59
2024-01-06T00:33:08.391Z,-25.66
2024-01-06T00:35:36.373Z,-25.60
2024-01-06T00:38:04.104Z,-25.72
2024-01-06T00:40:33.577Z,-25.91
2024-01-06T00:43:01.070Z,-25.83
2024-01-06T00:45:29.099Z,-25.81
2024-01-06T00:47:56.812Z,-26.14
2024-01-06T00:50:25.057Z,-25.92
2024-01-06T00:52:53.626Z,-25.77
2024-01-06T00:55:21.979Z,-25.72
2024-01-06T00:57:50.612Z,-25.73
2024-01-06T01:00:18.734Z,-25.76
2024-01-06T01:02:46.270Z,-25.73
2024-01-06T01:05:13.890Z,-25.85
2024-01-06T01:07:41.448Z,-25.78
2024-01-06T01:10:10.410Z,-25.87
2024-01-06T01:12:38.338Z,-26.04
2024-01-06T01:15:06.586Z,-25.82
2024-01-06T01:17:34.064Z,-25.82
2024-01-06T01:20:01.972Z,-25.97
2024-01-06T01:22:31.643Z,-25.88
2024-01-06T01:24:59.276Z,-25.91
2024-01-06T01:27:26.913Z,-25.82
2024-01-06T01:29:56.208Z,-26.01
2024-01-06T01:32:24.573Z,-25.74
2024-01-06T01:34:52.481Z,-25.70
2024-01-06T01:37:20.138Z,-25.70
2024-01-06T01:39:48.688Z,-25.78
2024-01-06T01:42:16.420Z,-25.99
2024-01-06T01:44:44.034Z,-26.04
2024-01-06T01:47:12.656Z,-26.08
2024-01-06T01:49:40.235Z,-26.02
2024-01-06T01:52:08.501Z,-26.28
2024-01-06T01:54:36.413Z,-26.02
2024-01-06T01:57:04.446Z,-26.12
2024-01-06T01:59:32.408Z,-25.94
2024-01-06T02:01:59.987Z,-25.87
2024-01-06T02:04:27.684Z,-25.89
2024-01-06T02:06:55.210Z,-26.00
2024-01-06T02:09:28.360Z,-25.93
2024-01-06T02:11:58.122Z,-25.98
2024-01-06T02:14:27.026Z,-26.01
2024-01-06T02:16:54.773Z,-26.11
2024-01-06T02:19:22.850Z,-26.18
2024-01-06T02:21:56.555Z,-26.70
2024-01-06T02:24:24.181Z,-26.31
2024-01-06T02:26:52.013Z,-26.32
2024-01-06T02:29:19.736Z,-26.33
2024-01-06T02:31:47.327Z,-26.67
2024-01-06T02:34:15.188Z,-26.38
2024-01-06T02:36:42.998Z,-26.38
2024-01-06T02:39:10.657Z,-26.46
2024-01-06T02:41:38.440Z,-26.50
2024-01-06T02:44:06.598Z,-26.87
2024-01-06T02:46:34.364Z,-26.54
2024-01-06T02:49:02.249Z,-26.53
2024-01-06T02:51:29.901Z,-26.57
2024-01-06T02:53:57.365Z,-26.61
2024-01-06T02:56:24.854Z,-26.60
2024-01-06T02:58:52.396Z,-26.51
2024-01-06T03:01:20.008Z,-26.49
2024-01-06T03:03:48.350Z,-26.44
2024-01-06T03:06:16.020Z,-26.21
2024-01-06T03:08:43.666Z,-26.24
2024-01-06T03:11:12.320Z,-26.32
2024-01-06T03:13:40.018Z,-26.31
2024-01-06T03:16:08.663Z,-26.27
2024-01-06T03:18:36.395Z,-26.32
2024-01-06T03:21:04.325Z,-26.43
2024-01-06T03:23:31.999Z,-26.43
2024-01-06T03:25:59.630Z,-26.31
2024-01-06T03:28:27.289Z,-26.30
2024-01-06T03:30:55.086Z,-26.29
2024-01-06T03:33:22.598Z,-26.32
2024-01-06T03:35:50.233Z,-26.34
2024-01-06T03:38:18.168Z,-26.32
2024-01-06T03:40:45.751Z,-26.40
2024-01-06T03:43:13.528Z,-26.64
2024-01-06T03:45:41.349Z,-26.29
2024-01-06T03:48:09.279Z,-26.31
2024-01-06T03:50:36.837Z,-26.41
2024-01-06T03:53:04.396Z,-26.81
2024-01-06T03:55:35.341Z,-26.51
2024-01-06T03:58:03.110Z,-26.50
2024-01-06T04:00:30.721Z,-26.42
2024-01-06T04:02:58.364Z,-26.63
2024-01-06T04:05:26.139Z,-26.29
2024-01-06T04:07:53.822Z,-26.30
2024-01-06T04:10:21.493Z,-26.35
2024-01-06T04:12:49.194Z,-26.30
2024-01-06T04:15:17.618Z,-26.45
2024-01-06T04:17:45.352Z,-26.31
2024-01-06T04:20:14.092Z,-26.21
2024-01-06T04:22:41.894Z,-26.15
2024-01-06T04:25:09.579Z,-26.07
2024-01-06T04:27:37.209Z,-26.20
2024-01-06T04:30:05.301Z,-26.14
2024-01-06T04:32:33.606Z,-26.24
2024-01-06T04:35:01.279Z,-26.26
2024-01-06T04:37:29.045Z,-26.10
2024-01-06T04:39:56.910Z,-26.50
2024-01-06T04:42:24.736Z,-26.10
2024-01-06T04:44:52.232Z,-26.42
2024-01-06T04:47:19.953Z,-26.47
2024-01-06T04:49:47.654Z,-26.38
2024-01-06T04:52:15.581Z,-26.32
2024-01-06T04:54:43.011Z,-26.24
2024-01-06T04:57:10.897Z,-26.24
2024-01-06T04:59:38.427Z,-26.66
2024-01-06T05:02:06.291Z,-26.65
2024-01-06T05:04:34.183Z,-26.62
2024-01-06T05:07:01.789Z,-26.61
2024-01-06T05:09:29.550Z,-26.32
2024-01-06T05:11:57.039Z,-26.32
2024-01-06T05:14:25.005Z,-26.33
2024-01-06T05:16:52.789Z,-26.36
2024-01-06T05:19:22.405Z,-26.37
2024-01-06T05:21:50.582Z,-26.50
2024-01-06T05:24:19.012Z,-26.68
2024-01-06T05:26:46.828Z,-26.69
2024-01-06T05:29:14.437Z,-26.79
2024-01-06T05:31:42.404Z,-27.17
2024-01-06T05:34:15.707Z,-26.76
2024-01-06T05:36:43.594Z,-26.74
2024-01-06T05:39:11.616Z,-26.63
2024-01-06T05:41:42.422Z,-26.63
2024-01-06T05:44:10.198Z,-26.81
2024-01-06T05:46:37.964Z,-26.45
2024-01-06T05:49:06.115Z,-26.51
2024-01-06T05:51:33.779Z,-26.61
2024-01-06T05:54:01.847Z,-26.67
2024-01-06T05:56:30.142Z,-26.65
2024-01-06T05:58:57.574Z,-26.78
2024-01-06T06:01:25.349Z,-26.82
2024-01-06T06:03:53.164Z,-26.95
2024-01-06T06:06:21.336Z,-27.14
2024-01-06T06:08:49.922Z,-27.21
2024-01-06T06:11:17.972Z,-27.07
2024-01-06T06:13:45.603Z,-26.94
2024-01-06T06:16:16.310Z,-26.96
2024-01-06T06:18:44.040Z,-26.77
2024-01-06T06:21:11.754Z,-26.83
2024-01-06T06:23:39.799Z,-26.64
2024-01-06T06:26:08.270Z,-26.65
2024-01-06T06:28:36.819Z,-26.47
2024-01-06T06:31:05.592Z,-26.49
2024-01-06T06:33:35.080Z,-26.90
2024-01-06T06:36:03.212Z,-26.58
2024-01-06T06:38:31.063Z,-26.63
2024-01-06T06:40:58.728Z,-26.72
2024-01-06T06:43:26.199Z,-26.72
2024-01-06T06:45:54.168Z,-26.96
2024-01-06T06:48:27.533Z,-26.88
2024-01-06T06:50:55.290Z,-26.88
2024-01-06T06:53:22.660Z,-27.11
2024-01-06T06:55:50.086Z,-27.21
2024-01-06T06:58:17.819Z,-26.90
2024-01-06T07:00:45.520Z,-26.86
2024-01-06T07:03:14.732Z,-26.91
2024-01-06T07:05:42.680Z,-27.02
2024-01-06T07:08:10.304Z,-26.95
2024-01-06T07:10:37.818Z,-26.96
2024-01-06T07:13:05.370Z,-26.92
2024-01-06T07:15:33.034Z,-26.91
2024-01-06T07:18:00.766Z,-26.88
2024-01-06T07:20:28.568Z,-26.79
2024-01-06T07:22:56.720Z,-26.98
2024-01-06T07:25:24.303Z,-26.65
2024-01-06T07:27:55.181Z,-26.57
2024-01-06T07:30:23.484Z,-26.63
2024-01-06T07:32:53.448Z,-26.66
2024-01-06T07:35:21.238Z,-26.72
2024-01-06T07:37:50.354Z,-26.73
2024-01-06T07:40:18.406Z,-26.71
2024-01-06T07:42:46.941Z,-26.97
2024-01-06T07:45:14.883Z,-26.55
2024-01-06T07:47:43.207Z,-26.57
2024-01-06T07:50:11.133Z,-26.69
2024-01-06T07:52:39.704Z,-26.78
2024-01-06T07:55:07.497Z,-26.89
2024-01-06T07:57:35.117Z,-26.94
2024-01-06T08:00:06.120Z,-27.02
2024-01-06T08:02:39.933Z,-26.82
2024-01-06T08:05:08.452Z,-27.12
2024-01-06T08:07:36.124Z,-26.78
2024-01-06T08:10:07.042Z,-26.76
2024-01-06T08:12:35.774Z,-26.54
2024-01-06T08:15:03.743Z,-26.57
2024-01-06T08:17:32.783Z,-26.51
2024-01-06T08:20:01.224Z,-26.51
2024-01-06T08:22:29.107Z,-26.57
2024-01-06T08:24:56.923Z,-26.72
2024-01-06T08:27:25.430Z,-26.69
2024-01-06T08:29:53.406Z,-26.52
2024-01-06T08:32:21.173Z,-26.43
2024-01-06T08:34:48.628Z,-26.51
2024-01-06T08:37:16.386Z,-26.18
2024-01-06T08:39:43.903Z,-26.12
2024-01-06T08:42:11.636Z,-25.91
2024-01-06T08:44:39.300Z,-25.98
2024-01-06T08:47:06.959Z,-25.80
2024-01-06T08:49:34.855Z,-25.86
2024-01-06T08:52:02.411Z,-25.80
2024-01-06T08:54:32.773Z,-25.90
2024-01-06T08:57:01.085Z,-25.99
2024-01-06T08:59:28.866Z,-25.97
2024-01-06T09:01:57.259Z,-25.92
2024-01-06T09:04:24.959Z,-25.72
2024-01-06T09:06:52.961Z,-25.77
2024-01-06T09:09:20.574Z,-25.78
2024-01-06T09:11:48.232Z,-25.80
2024-01-06T09:14:15.863Z,-25.67
2024-01-06T09:16:43.311Z,-25.44
2024-01-06T09:19:11.125Z,-25.33
2024-01-06T09:21:38.657Z,-25.36
2024-01-06T09:24:07.940Z,-25.30
2024-01-06T09:26:35.771Z,-25.41
2024-01-06T09:29:04.515Z,-25.44
2024-01-06T09:31:32.363Z,-25.38
2024-01-06T09:34:07.493Z,-25.43
2024-01-06T09:36:35.209Z,-25.44
2024-01-06T09:39:03.133Z,-25.57
2024-01-06T09:41:30.806Z,-26.04
2024-01-06T09:43:58.666Z,-25.54
2024-01-06T09:46:27.797Z,-25.69
2024-01-06T09:49:03.149Z,-25.55
2024-01-06T09:51:30.942Z,-25.42
2024-01-06T09:54:00.160Z,-25.56
2024-01-06T09:56:30.069Z,-25.22
2024-01-06T09:58:58.224Z,-24.98
2024-01-06T10:01:26.492Z,-24.98
2024-01-06T10:03:54.737Z,-25.10
2024-01-06T10:06:22.706Z,-25.22
2024-01-06T10:08:52.413Z,-25.10
2024-01-06T10:11:28.839Z,-24.96
2024-01-06T10:13:56.427Z,-24.84
2024-01-06T10:16:24.129Z,-24.71
2024-01-06T10:18:54.109Z,-24.78
2024-01-06T10:21:27.569Z,-24.71
2024-01-06T10:23:56.011Z,-24.64
2024-01-06T10:26:23.918Z,-24.50
2024-01-06T10:28:53.004Z,-24.63
2024-01-06T10:31:20.794Z,-24.77
2024-01-06T10:33:49.913Z,-24.96
2024-01-06T10:36:18.208Z,-24.73
2024-01-06T10:38:48.573Z,-24.71
2024-01-06T10:41:17.979Z,-24.66
2024-01-06T10:43:48.366Z,-24.64
2024-01-06T10:46:17.446Z,-24.82
2024-01-06T10:48:47.459Z,-24.54
2024-01-06T10:51:16.595Z,-24.49
2024-01-06T10:53:45.043Z,-24.45
2024-01-06T10:56:12.961Z,-24.39
2024-01-06T10:58:48.349Z,-24.33
2024-01-06T11:01:25.728Z,-24.24
2024-01-06T11:03:56.675Z,-24.17
2024-01-06T11:06:25.221Z,-24.16
2024-01-06T11:09:03.335Z,-24.08
2024-01-06T11:11:31.964Z,-23.97
2024-01-06T11:14:23.329Z,-23.93
2024-01-06T11:16:51.576Z,-23.85
2024-01-06T11:19:38.534Z,-23.79
2024-01-06T11:22:24.397Z,-23.96
2024-01-06T11:24:54.505Z,-24.11
2024-01-06T11:27:25.161Z,-24.25
2024-01-06T11:29:55.497Z,-24.30
2024-01-06T11:32:27.468Z,-24.27
2024-01-06T11:34:57.731Z,-24.45
2024-01-06T11:37:40.454Z,-24.27
2024-01-06T11:40:30.638Z,-24.22
2024-01-06T11:43:02.787Z,-24.06
2024-01-06T11:45:30.610Z,-23.95
2024-01-06T11:48:01.631Z,-24.07
2024-01-06T11:50:30.340Z,-24.03
2024-01-06T11:52:58.025Z,-24.03
2024-01-06T11:55:25.851Z,-24.18
2024-01-06T11:57:53.747Z,-24.22
2024-01-06T12:00:21.621Z,-24.31
2024-01-06T12:02:49.741Z,-24.34
2024-01-06T12:05:19.698Z,-24.33
2024-01-06T12:08:09.174Z,-24.60
2024-01-06T12:10:38.673Z,-24.34
2024-01-06T12:13:10.302Z,-24.27
2024-01-06T12:15:41.904Z,-24.52
2024-01-06T12:18:10.343Z,-24.53
2024-01-06T12:20:38.108Z,-24.41
2024-01-06T12:23:07.821Z,-24.32
2024-01-06T12:25:40.426Z,-24.29
2024-01-06T12:28:09.494Z,-24.35
2024-01-06T12:30:37.733Z,-24.43
2024-01-06T12:33:05.929Z,-24.49
2024-01-06T12:35:33.829Z,-24.58
2024-01-06T12:38:08.165Z,-24.60
2024-01-06T12:40:41.162Z,-24.63
2024-01-06T12:43:08.788Z,-24.49
2024-01-06T12:45:36.473Z,-24.44
2024-01-06T12:48:04.412Z,-24.37
2024-01-06T12:50:32.119Z,-24.34
2024-01-06T12:52:59.643Z,-24.41
2024-01-06T12:55:27.229Z,-24.43
2024-01-06T12:57:54.964Z,-24.46
2024-01-06T13:00:22.875Z,-24.51
2024-01-06T13:02:50.573Z,-24.44
2024-01-06T13:05:18.136Z,-24.44
2024-01-06T13:07:45.733Z,-24.43
2024-01-06T13:10:13.348Z,-24.35
2024-01-06T13:12:40.894Z,-24.35
2024-01-06T13:15:12.666Z,-24.26
2024-01-06T13:17:40.405Z,-24.66
2024-01-06T13:20:09.337Z,-24.32
2024-01-06T13:22:36.992Z,-24.28
2024-01-06T13:25:08.601Z,-24.25
2024-01-06T13:27:37.548Z,-24.37
2024-01-06T13:30:06.150Z,-24.33
2024-01-06T13:32:33.800Z,-24.60
2024-01-06T13:35:05.799Z,-24.18
2024-01-06T13:37:33.882Z,-24.21
2024-01-06T13:40:01.452Z,-24.42
2024-01-06T13:42:31.805Z,-24.49
2024-01-06T13:45:01.803Z,-24.23
2024-01-06T13:47:31.466Z,-24.25
2024-01-06T13:49:59.763Z,-24.24
2024-01-06T13:52:27.991Z,-24.29
2024-01-06T13:54:55.578Z,-24.56
2024-01-06T13:57:23.244Z,-24.65
2024-01-06T13:59:50.872Z,-24.26
2024-01-06T14:02:18.939Z,-24.21
2024-01-06T14:04:46.894Z,-24.20
2024-01-06T14:07:14.697Z,-24.19
2024-01-06T14:09:42.258Z,-24.15
2024-01-06T14:12:09.966Z,-24.18
2024-01-06T14:14:37.540Z,-24.13
2024-01-06T14:17:05.290Z,-24.31
2024-01-06T14:19:33.334Z,-24.31
2024-01-06T14:22:01.095Z,-24.14
2024-01-06T14:24:28.556Z,-24.56
2024-01-06T14:26:57.226Z,-24.10
2024-01-06T14:29:25.337Z,-24.15
2024-01-06T14:31:53.344Z,-24.15
2024-01-06T14:34:21.054Z,-24.22
2024-01-06T14:36:51.606Z,-24.26
2024-01-06T14:39:23.093Z,-24.24
2024-01-06T14:41:51.820Z,-24.21
2024-01-06T14:44:22.554Z,-24.24
2024-01-06T14:46:51.926Z,-24.32
2024-01-06T14:49:19.518Z,-24.18
2024-01-06T14:51:47.064Z,-24.16
2024-01-06T14:54:14.670Z,-24.22
2024-01-06T14:56:42.537Z,-24.18
2024-01-06T14:59:10.764Z,-24.30
2024-01-06T15:01:38.696Z,-23.99
2024-01-06T15:04:06.957Z,-24.14
2024-01-06T15:06:36.000Z,-24.42
2024-01-06T15:09:03.594Z,-24.03
2024-01-06T15:11:31.141Z,-24.29
2024-01-06T15:13:58.698Z,-24.00
2024-01-06T15:16:26.776Z,-24.03
2024-01-06T15:18:57.174Z,-24.03
2024-01-06T15:21:26.682Z,-24.09
2024-01-06T15:23:55.504Z,-23.93
2024-01-06T15:26:26.649Z,-23.99
2024-01-06T15:28:54.781Z,-24.00
2024-01-06T15:31:22.313Z,-23.86
2024-01-06T15:33:50.038Z,-24.00
2024-01-06T15:36:17.771Z,-23.74
2024-01-06T15:38:45.454Z,-23.81
2024-01-06T15:41:13.050Z,-23.80
2024-01-06T15:43:40.758Z,-23.88
2024-01-06T15:46:08.885Z,-23.94
2024-01-06T15:48:37.650Z,-23.81
2024-01-06T15:51:05.875Z,-23.87
2024-01-06T15:53:35.062Z,-23.80
2024-01-06T15:56:03.149Z,-23.72
2024-01-06T15:58:30.903Z,-23.70
2024-01-06T16:05:10.719Z,-23.76
2024-01-06T16:07:47.449Z,-24.01
2024-01-06T16:10:14.978Z,-23.60
2024-01-06T16:12:43.359Z,-23.41
2024-01-06T16:15:11.370Z,-23.35
2024-01-06T16:17:39.125Z,-23.32
2024-01-06T16:20:07.913Z,-23.31
2024-01-06T16:22:35.503Z,-23.44
2024-01-06T16:25:03.280Z,-23.51
2024-01-06T16:27:31.737Z,-23.58
2024-01-06T16:29:59.556Z,-23.72
2024-01-06T16:32:27.482Z,-23.69
2024-01-06T16:34:55.211Z,-23.67
2024-01-06T16:37:22.836Z,-23.67
2024-01-06T16:39:50.647Z,-23.74
2024-01-06T16:42:18.226Z,-23.69
2024-01-06T16:44:45.832Z,-23.75
2024-01-06T16:47:13.533Z,-23.77
2024-01-06T16:49:41.054Z,-23.55
2024-01-06T16:52:08.795Z,-23.65
2024-01-06T16:54:36.286Z,-23.59
2024-01-06T16:57:04.586Z,-23.62
2024-01-06T16:59:34.909Z,-23.67
2024-01-06T17:02:04.097Z,-23.68
2024-01-06T17:04:33.805Z,-23.86
2024-01-06T17:07:02.559Z,-23.88
2024-01-06T17:09:30.312Z,-23.64
2024-01-06T17:11:58.089Z,-24.13
2024-01-06T17:14:25.764Z,-23.64
2024-01-06T17:16:53.434Z,-23.63
2024-01-06T17:19:22.081Z,-23.64
2024-01-06T17:21:50.085Z,-23.59
2024-01-06T17:24:17.695Z,-23.86
2024-01-06T17:26:45.219Z,-23.48
2024-01-06T17:29:16.106Z,-23.58
2024-01-06T17:31:44.662Z,-23.34
2024-01-06T17:34:12.555Z,-23.39
2024-01-06T17:36:40.122Z,-23.54
2024-01-06T17:39:09.000Z,-23.56
2024-01-06T17:41:49.426Z,-23.55
2024-01-06T17:44:21.098Z,-23.65
2024-01-06T17:46:48.732Z,-23.69
2024-01-06T17:49:16.298Z,-23.65
2024-01-06T17:51:44.146Z,-23.65
2024-01-06T17:54:11.993Z,-23.59
2024-01-06T17:56:39.520Z,-23.59
2024-01-06T17:59:07.543Z,-23.59
2024-01-06T18:01:36.626Z,-23.67
2024-01-06T18:04:04.586Z,-23.89
2024-01-06T18:06:32.178Z,-23.50
2024-01-06T18:09:00.042Z,-23.48
2024-01-06T18:11:27.561Z,-23.55
2024-01-06T18:13:55.139Z,-23.84
2024-01-06T18:16:22.691Z,-23.69
2024-01-06T18:18:50.521Z,-24.10
2024-01-06T18:21:18.579Z,-23.79
2024-01-06T18:23:46.768Z,-23.84
2024-01-06T18:26:14.680Z,-24.02
2024-01-06T18:28:42.222Z,-23.83
2024-01-06T18:31:09.969Z,-23.81
2024-01-06T18:33:37.593Z,-24.03
2024-01-06T18:36:05.974Z,-23.83
2024-01-06T18:38:33.729Z,-23.88
2024-01-06T18:41:03.620Z,-23.92
2024-01-06T18:43:32.460Z,-24.00
2024-01-06T18:46:00.263Z,-24.02
2024-01-06T18:48:28.075Z,-24.09
2024-01-06T18:50:57.099Z,-24.28
2024-01-06T18:53:24.651Z,-24.43
2024-01-06T18:55:52.957Z,-24.45
2024-01-06T18:58:20.579Z,-24.25
2024-01-06T19:00:48.313Z,-24.27
2024-01-06T19:03:15.888Z,-24.32
2024-01-06T19:05:43.629Z,-24.28
2024-01-06T19:08:12.262Z,-24.34
2024-01-06T19:10:39.987Z,-24.06
2024-01-06T19:13:09.876Z,-24.28
2024-01-06T19:15:40.396Z,-24.06
2024-01-06T19:18:08.580Z,-24.05
2024-01-06T19:20:36.544Z,-24.10
2024-01-06T19:23:09.482Z,-24.19
2024-01-06T19:25:38.422Z,-24.15
2024-01-06T19:28:07.125Z,-24.21
2024-01-06T19:30:35.455Z,-24.28
2024-01-06T19:33:03.374Z,-24.31
2024-01-06T19:35:32.910Z,-24.33
2024-01-06T19:38:00.296Z,-24.33
2024-01-06T19:40:27.717Z,-24.32
2024-01-06T19:42:55.253Z,-24.59
2024-01-06T19:45:23.127Z,-24.22
2024-01-06T19:47:50.841Z,-24.18
2024-01-06T19:50:18.567Z,-24.24
2024-01-06T19:52:45.972Z,-24.27
2024-01-06T19:55:13.711Z,-24.30
2024-01-06T19:57:41.611Z,-24.26
2024-01-06T20:00:10.239Z,-24.16
2024-01-06T20:02:38.327Z,-24.24
2024-01-06T20:05:08.624Z,-24.27
2024-01-06T20:07:36.318Z,-24.28
2024-01-06T20:10:04.074Z,-24.32
2024-01-06T20:12:33.017Z,-24.45
2024-01-06T20:15:00.666Z,-24.39
2024-01-06T20:17:28.355Z,-24.42
2024-01-06T20:19:55.974Z,-24.46
2024-01-06T20:22:23.713Z,-24.47
2024-01-06T20:24:51.319Z,-24.36
2024-01-06T20:27:19.788Z,-24.36
2024-01-06T20:29:47.839Z,-24.39
2024-01-06T20:32:15.528Z,-24.36
2024-01-06T20:34:45.910Z,-24.44
2024-01-06T20:37:13.893Z,-24.55
2024-01-06T20:39:41.470Z,-24.66
2024-01-06T20:42:09.043Z,-24.72
2024-01-06T20:44:37.538Z,-24.68
2024-01-06T20:47:05.176Z,-24.64
2024-01-06T20:49:32.842Z,-24.65
2024-01-06T20:52:00.494Z,-24.68
2024-01-06T20:54:28.230Z,-24.67
2024-01-06T20:56:55.897Z,-24.75
2024-01-06T20:59:23.380Z,-24.63
2024-01-06T21:01:50.900Z,-24.63
2024-01-06T21:04:18.757Z,-24.64
2024-01-06T21:06:46.317Z,-24.57
2024-01-06T21:09:13.818Z,-24.57
2024-01-06T21:11:44.134Z,-24.70
2024-01-06T21:14:11.500Z,-24.58
2024-01-06T21:16:41.102Z,-24.59
2024-01-06T21:19:08.810Z,-24.65
2024-01-06T21:21:36.387Z,-24.58
2024-01-06T21:24:04.167Z,-24.63
2024-01-06T21:26:33.828Z,-24.49
2024-01-06T21:29:01.583Z,-24.47
2024-01-06T21:31:29.297Z,-24.48
2024-01-06T21:33:57.018Z,-24.46
2024-01-06T21:36:25.381Z,-24.64
2024-01-06T21:38:53.015Z,-24.40
2024-01-06T21:41:21.992Z,-24.37
2024-01-06T21:43:49.459Z,-24.44
2024-01-06T21:46:16.933Z,-24.42
2024-01-06T21:48:44.743Z,-24.40
2024-01-06T21:51:12.437Z,-24.73
2024-01-06T21:53:39.848Z,-24.39
2024-01-06T21:56:07.195Z,-24.38
2024-01-06T21:58:35.668Z,-24.26
2024-01-06T22:01:03.532Z,-24.18
2024-01-06T22:03:31.322Z,-24.07
2024-01-06T22:05:59.018Z,-24.05
2024-01-06T22:08:26.816Z,-24.00
2024-01-06T22:10:54.387Z,-24.02
2024-01-06T22:13:21.905Z,-24.03
2024-01-06T22:15:49.592Z,-23.99
2024-01-06T22:18:17.398Z,-24.06
2024-01-06T22:20:44.872Z,-23.98
2024-01-06T22:23:12.677Z,-24.01
2024-01-06T22:25:42.180Z,-24.08
2024-01-06T22:28:11.491Z,-23.99
2024-01-06T22:30:39.575Z,-24.10
2024-01-06T22:33:08.055Z,-24.13
2024-01-06T22:35:36.323Z,-24.37
2024-01-06T22:38:03.988Z,-23.99
2024-01-06T22:40:31.652Z,-23.94
2024-01-06T22:42:59.906Z,-23.91
2024-01-06T22:45:31.395Z,-23.89
2024-01-06T22:47:59.223Z,-23.84
2024-01-06T22:50:27.135Z,-23.84
2024-01-06T22:52:55.218Z,-23.82
2024-01-06T22:55:22.821Z,-23.78
2024-01-06T22:57:50.862Z,-23.78
2024-01-06T23:00:28.951Z,-23.81
2024-01-06T23:02:58.542Z,-23.79
2024-01-06T23:05:26.230Z,-23.75
2024-01-06T23:07:54.220Z,-23.65
2024-01-06T23:10:21.697Z,-23.95
2024-01-06T23:12:49.457Z,-23.57
2024-01-06T23:15:17.582Z,-23.61
2024-01-06T23:17:45.481Z,-23.52
2024-01-06T23:20:15.224Z,-23.63
2024-01-06T23:22:43.446Z,-23.47
2024-01-06T23:25:11.314Z,-23.42
2024-01-06T23:27:40.502Z,-23.45
2024-01-06T23:30:09.550Z,-23.63
2024-01-06T23:32:37.663Z,-23.29
2024-01-06T23:35:05.907Z,-23.52
2024-01-06T23:37:33.759Z,-23.22
2024-01-06T23:40:01.663Z,-23.27
2024-01-06T23:42:32.142Z,-23.31
2024-01-06T23:44:59.780Z,-23.25
2024-01-06T23:47:28.245Z,-23.20
2024-01-06T23:49:56.159Z,-23.17
2024-01-06T23:52:24.111Z,-23.17
2024-01-06T23:54:51.914Z,-23.15
2024-01-06T23:57:19.351Z,-23.17
2024-01-06T23:59:47.045Z,-23.35
